VRMG

Details ICAO VRMG (GAN)
Name GAN ISLAND
Region Maldives
Timezone Unknown (UTC+0.0)
Plans Departing 32
Arriving 38
Stats Elevation 6 ft / 2 m (AMSL)
Location -0.693340° 73.155646°
Runways 1
Magnetic Variation 4.134° W
Sunrise 2017-12-11 00:57:12 UTC / 2017-12-11 00:57:12 Local
Sunset 2017-12-11 13:06:48 UTC / 2017-12-11 13:06:48 Local
Advertisement - Login to hide

Runways

ID Width Length Bearing (true) Bearing (mag) Surface Threshold Offset Overrun Length
10 148 ft / 45 m 8,719 ft / 2,658 m 98.70° 102.83° Concrete 298 ft / 91 m 0 ft / 0 m
28 148 ft / 45 m 8,719 ft / 2,658 m 278.70° 282.83° Concrete 298 ft / 91 m 0 ft / 0 m

Map

Weather


0- 5 10 15 20 25 30 35+ Temperature / ° C

Clouds and Precipitation
Forecast for 2017-12-11 18:00 UTC. Updated 10 minutes ago

Ground ~20,000 ft ~40,000 ft Winds

METAR

Not found

TAF

TAF VRMG 111100Z 1112/1218 09004KT 9999 FEW019

Frequencies

Tower 119.10 MHz GAN TWR
Warning: Do not use this data for real-world aviation or navigation. No guarantee of current accuracy is given.